sensor_id;sensor_type;location;lat;lon;timestamp;pressure;altitude;pressure_sealevel;temperature;humidity
26775;BME280;14362;51.902;7.626;2024-02-26T00:02:50;99577.06;;;3.40;79.80
26775;BME280;14362;51.902;7.626;2024-02-26T00:06:52;99577.97;;;3.39;80.39
26775;BME280;14362;51.902;7.626;2024-02-26T00:10:57;99570.16;;;3.39;80.40
26775;BME280;14362;51.902;7.626;2024-02-26T00:14:58;99555.44;;;3.35;79.93
26775;BME280;14362;51.902;7.626;2024-02-26T00:19:00;99563.19;;;3.40;79.97
26775;BME280;14362;51.902;7.626;2024-02-26T00:23:02;99569.25;;;3.43;80.45
26775;BME280;14362;51.902;7.626;2024-02-26T00:27:05;99570.06;;;3.47;79.18
26775;BME280;14362;51.902;7.626;2024-02-26T00:31:06;99565.66;;;3.54;79.27
26775;BME280;14362;51.902;7.626;2024-02-26T00:35:08;99564.78;;;3.53;80.01
26775;BME280;14362;51.902;7.626;2024-02-26T00:39:11;99560.50;;;3.47;79.42
26775;BME280;14362;51.902;7.626;2024-02-26T00:43:14;99554.28;;;3.61;78.84
26775;BME280;14362;51.902;7.626;2024-02-26T00:47:15;99547.47;;;3.52;78.83
26775;BME280;14362;51.902;7.626;2024-02-26T00:51:17;99555.34;;;3.44;78.99
26775;BME280;14362;51.902;7.626;2024-02-26T00:55:18;99551.94;;;3.39;79.22
26775;BME280;14362;51.902;7.626;2024-02-26T00:59:21;99552.75;;;3.43;79.17
26775;BME280;14362;51.902;7.626;2024-02-26T01:03:22;99550.88;;;3.54;78.18
26775;BME280;14362;51.902;7.626;2024-02-26T01:07:24;99548.97;;;3.69;77.76
26775;BME280;14362;51.902;7.626;2024-02-26T01:11:25;99545.66;;;3.57;77.73
26775;BME280;14362;51.902;7.626;2024-02-26T01:15:28;99549.84;;;3.69;77.83
26775;BME280;14362;51.902;7.626;2024-02-26T01:19:30;99546.41;;;3.66;78.39
26775;BME280;14362;51.902;7.626;2024-02-26T01:23:31;99533.41;;;3.66;78.16
26775;BME280;14362;51.902;7.626;2024-02-26T01:27:32;99537.63;;;3.74;77.65
26775;BME280;14362;51.902;7.626;2024-02-26T01:31:35;99524.28;;;3.99;76.45
26775;BME280;14362;51.902;7.626;2024-02-26T01:35:37;99526.03;;;3.97;76.24
26775;BME280;14362;51.902;7.626;2024-02-26T01:39:38;99516.50;;;3.98;76.50
26775;BME280;14362;51.902;7.626;2024-02-26T01:43:41;99513.78;;;4.05;75.50
26775;BME280;14362;51.902;7.626;2024-02-26T01:47:44;99521.59;;;4.04;76.50
26775;BME280;14362;51.902;7.626;2024-02-26T01:51:46;99532.88;;;4.04;76.32
26775;BME280;14362;51.902;7.626;2024-02-26T01:55:47;99527.69;;;4.03;76.48
26775;BME280;14362;51.902;7.626;2024-02-26T01:59:49;99529.38;;;4.07;76.29
26775;BME280;14362;51.902;7.626;2024-02-26T02:03:52;99537.91;;;4.15;75.68
26775;BME280;14362;51.902;7.626;2024-02-26T02:07:55;99542.88;;;4.34;74.96
26775;BME280;14362;51.902;7.626;2024-02-26T02:11:56;99532.44;;;4.32;74.00
26775;BME280;14362;51.902;7.626;2024-02-26T02:15:58;99539.31;;;4.38;73.69
26775;BME280;14362;51.902;7.626;2024-02-26T02:20:01;99547.91;;;4.44;74.21
26775;BME280;14362;51.902;7.626;2024-02-26T02:24:05;99538.31;;;4.45;73.82
26775;BME280;14362;51.902;7.626;2024-02-26T02:28:06;99539.31;;;4.38;74.04
26775;BME280;14362;51.902;7.626;2024-02-26T02:32:08;99548.94;;;4.34;74.05
26775;BME280;14362;51.902;7.626;2024-02-26T02:36:10;99545.47;;;4.32;74.50
26775;BME280;14362;51.902;7.626;2024-02-26T02:40:13;99556.78;;;4.33;74.60
26775;BME280;14362;51.902;7.626;2024-02-26T02:44:14;99564.50;;;4.39;74.24
26775;BME280;14362;51.902;7.626;2024-02-26T02:48:16;99559.13;;;4.50;73.09
26775;BME280;14362;51.902;7.626;2024-02-26T02:52:17;99565.91;;;4.60;72.64
26775;BME280;14362;51.902;7.626;2024-02-26T02:56:20;99565.97;;;4.57;72.93
26775;BME280;14362;51.902;7.626;2024-02-26T03:00:21;99577.41;;;4.47;74.12
26775;BME280;14362;51.902;7.626;2024-02-26T03:04:23;99574.59;;;4.59;73.17
26775;BME280;14362;51.902;7.626;2024-02-26T03:08:25;99575.22;;;4.73;72.75
26775;BME280;14362;51.902;7.626;2024-02-26T03:12:27;99580.69;;;4.59;73.42
26775;BME280;14362;51.902;7.626;2024-02-26T03:16:30;99582.59;;;4.48;74.03
26775;BME280;14362;51.902;7.626;2024-02-26T03:20:32;99587.84;;;4.47;73.92
26775;BME280;14362;51.902;7.626;2024-02-26T03:24:33;99579.22;;;4.41;74.42
26775;BME280;14362;51.902;7.626;2024-02-26T03:28:36;99573.09;;;4.45;74.23
26775;BME280;14362;51.902;7.626;2024-02-26T03:32:37;99564.31;;;4.50;73.28
26775;BME280;14362;51.902;7.626;2024-02-26T03:36:39;99565.94;;;4.58;73.13
26775;BME280;14362;51.902;7.626;2024-02-26T03:40:40;99573.50;;;4.72;72.08
26775;BME280;14362;51.902;7.626;2024-02-26T03:44:43;99584.06;;;4.65;73.33
26775;BME280;14362;51.902;7.626;2024-02-26T03:48:44;99592.84;;;4.59;73.60
26775;BME280;14362;51.902;7.626;2024-02-26T03:52:46;99598.88;;;4.62;73.57
26775;BME280;14362;51.902;7.626;2024-02-26T03:56:47;99592.00;;;4.58;74.10
26775;BME280;14362;51.902;7.626;2024-02-26T04:00:50;99584.81;;;4.73;73.08
26775;BME280;14362;51.902;7.626;2024-02-26T04:04:51;99588.38;;;4.66;73.53
26775;BME280;14362;51.902;7.626;2024-02-26T04:08:52;99595.94;;;4.83;72.93
26775;BME280;14362;51.902;7.626;2024-02-26T04:12:54;99601.28;;;4.75;73.23
26775;BME280;14362;51.902;7.626;2024-02-26T04:16:57;99606.59;;;4.67;74.60
26775;BME280;14362;51.902;7.626;2024-02-26T04:20:58;99603.09;;;4.70;73.69
26775;BME280;14362;51.902;7.626;2024-02-26T04:24:59;99607.41;;;4.72;73.85
26775;BME280;14362;51.902;7.626;2024-02-26T04:29:01;99614.53;;;4.62;75.26
26775;BME280;14362;51.902;7.626;2024-02-26T04:33:04;99617.81;;;4.72;74.76
26775;BME280;14362;51.902;7.626;2024-02-26T04:37:05;99622.25;;;4.69;74.47
26775;BME280;14362;51.902;7.626;2024-02-26T04:41:07;99630.28;;;4.55;75.97
26775;BME280;14362;51.902;7.626;2024-02-26T04:45:08;99638.84;;;4.61;76.42
26775;BME280;14362;51.902;7.626;2024-02-26T04:49:11;99635.56;;;4.49;76.88
26775;BME280;14362;51.902;7.626;2024-02-26T04:53:13;99637.34;;;4.48;76.74
26775;BME280;14362;51.902;7.626;2024-02-26T04:57:14;99627.63;;;4.59;76.05
26775;BME280;14362;51.902;7.626;2024-02-26T05:01:18;99631.22;;;4.51;76.80
26775;BME280;14362;51.902;7.626;2024-02-26T05:05:21;99634.72;;;4.48;77.48
26775;BME280;14362;51.902;7.626;2024-02-26T05:09:22;99631.22;;;4.51;77.07
26775;BME280;14362;51.902;7.626;2024-02-26T05:13:24;99627.78;;;4.47;78.25
26775;BME280;14362;51.902;7.626;2024-02-26T05:17:25;99634.78;;;4.43;78.50
26775;BME280;14362;51.902;7.626;2024-02-26T05:21:28;99645.28;;;4.39;78.88
26775;BME280;14362;51.902;7.626;2024-02-26T05:25:29;99637.34;;;4.47;78.19
26775;BME280;14362;51.902;7.626;2024-02-26T05:29:31;99643.38;;;4.52;77.47
26775;BME280;14362;51.902;7.626;2024-02-26T05:33:32;99646.88;;;4.48;78.55
26775;BME280;14362;51.902;7.626;2024-02-26T05:37:35;99646.81;;;4.52;77.27
26775;BME280;14362;51.902;7.626;2024-02-26T05:41:36;99654.59;;;4.57;76.80
26775;BME280;14362;51.902;7.626;2024-02-26T05:45:38;99649.34;;;4.58;76.56
26775;BME280;14362;51.902;7.626;2024-02-26T05:49:39;99648.50;;;4.56;76.51
26775;BME280;14362;51.902;7.626;2024-02-26T05:53:42;99648.50;;;4.56;76.31
26775;BME280;14362;51.902;7.626;2024-02-26T05:57:44;99643.06;;;4.72;75.95
26775;BME280;14362;51.902;7.626;2024-02-26T06:01:45;99650.13;;;4.64;75.73
26775;BME280;14362;51.902;7.626;2024-02-26T06:05:47;99649.06;;;4.77;75.63
26775;BME280;14362;51.902;7.626;2024-02-26T06:09:50;99649.91;;;4.77;75.66
26775;BME280;14362;51.902;7.626;2024-02-26T06:13:51;99646.34;;;4.83;74.93
26775;BME280;14362;51.902;7.626;2024-02-26T06:17:52;99660.28;;;4.82;74.66
26775;BME280;14362;51.902;7.626;2024-02-26T06:21:54;99656.69;;;4.89;74.03
26775;BME280;14362;51.902;7.626;2024-02-26T06:25:57;99665.47;;;4.84;74.18
26775;BME280;14362;51.902;7.626;2024-02-26T06:29:58;99649.75;;;4.88;74.30
26775;BME280;14362;51.902;7.626;2024-02-26T06:33:59;99639.38;;;4.84;74.61
26775;BME280;14362;51.902;7.626;2024-02-26T06:38:01;99640.19;;;4.87;74.51
26775;BME280;14362;51.902;7.626;2024-02-26T06:42:04;99653.28;;;4.86;74.57
26775;BME280;14362;51.902;7.626;2024-02-26T06:46:05;99652.38;;;4.88;73.82
26775;BME280;14362;51.902;7.626;2024-02-26T06:50:08;99651.47;;;4.89;73.80
26775;BME280;14362;51.902;7.626;2024-02-26T06:54:09;99661.72;;;5.00;73.27
26775;BME280;14362;51.902;7.626;2024-02-26T06:58:12;99669.50;;;5.03;73.06
26775;BME280;14362;51.902;7.626;2024-02-26T07:02:15;99673.03;;;4.99;73.26
26775;BME280;14362;51.902;7.626;2024-02-26T07:06:17;99672.09;;;5.05;73.32
26775;BME280;14362;51.902;7.626;2024-02-26T07:10:18;99679.78;;;5.14;72.43
26775;BME280;14362;51.902;7.626;2024-02-26T07:14:21;99678.81;;;5.18;72.28
26775;BME280;14362;51.902;7.626;2024-02-26T07:18:24;99687.56;;;5.16;73.14
26775;BME280;14362;51.902;7.626;2024-02-26T07:22:26;99689.31;;;5.14;73.06
26775;BME280;14362;51.902;7.626;2024-02-26T07:26:27;99680.66;;;5.13;73.01
26775;BME280;14362;51.902;7.626;2024-02-26T07:30:32;99701.38;;;5.22;72.06
26775;BME280;14362;51.902;7.626;2024-02-26T07:34:33;99698.72;;;5.25;72.22
26775;BME280;14362;51.902;7.626;2024-02-26T07:38:35;99701.31;;;5.27;72.61
26775;BME280;14362;51.902;7.626;2024-02-26T07:42:37;99711.63;;;5.33;72.30
26775;BME280;14362;51.902;7.626;2024-02-26T07:46:40;99728.94;;;5.39;72.84
26775;BME280;14362;51.902;7.626;2024-02-26T07:50:42;99729.00;;;5.34;73.69
26775;BME280;14362;51.902;7.626;2024-02-26T07:54:43;99732.28;;;5.47;73.04
26775;BME280;14362;51.902;7.626;2024-02-26T07:58:45;99738.25;;;5.54;72.26
26775;BME280;14362;51.902;7.626;2024-02-26T08:02:47;99744.34;;;5.54;72.88
26775;BME280;14362;51.902;7.626;2024-02-26T08:06:49;99754.72;;;5.57;72.42
26775;BME280;14362;51.902;7.626;2024-02-26T08:10:50;99769.41;;;5.65;72.27
26775;BME280;14362;51.902;7.626;2024-02-26T08:14:52;99760.56;;;5.73;71.80
26775;BME280;14362;51.902;7.626;2024-02-26T08:18:55;99770.13;;;5.73;71.49
26775;BME280;14362;51.902;7.626;2024-02-26T08:22:56;99781.53;;;5.69;71.54
26775;BME280;14362;51.902;7.626;2024-02-26T08:26:58;99783.03;;;5.82;71.19
26775;BME280;14362;51.902;7.626;2024-02-26T08:30:59;99795.03;;;5.92;69.84
26775;BME280;14362;51.902;7.626;2024-02-26T08:35:02;99787.91;;;6.04;70.10
26775;BME280;14362;51.902;7.626;2024-02-26T08:39:04;99790.78;;;5.87;69.92
26775;BME280;14362;51.902;7.626;2024-02-26T08:43:05;99802.09;;;5.89;70.32
26775;BME280;14362;51.902;7.626;2024-02-26T08:47:07;99787.25;;;5.89;69.88
26775;BME280;14362;51.902;7.626;2024-02-26T08:51:09;99789.72;;;5.99;69.95
26775;BME280;14362;51.902;7.626;2024-02-26T08:55:11;99791.50;;;5.98;70.17
26775;BME280;14362;51.902;7.626;2024-02-26T08:59:14;99800.13;;;6.03;69.99
26775;BME280;14362;51.902;7.626;2024-02-26T09:03:16;99813.91;;;6.10;69.45
26775;BME280;14362;51.902;7.626;2024-02-26T09:07:19;99812.91;;;6.19;69.03
26775;BME280;14362;51.902;7.626;2024-02-26T09:11:20;99818.13;;;6.17;69.22
26775;BME280;14362;51.902;7.626;2024-02-26T09:15:22;99816.88;;;6.38;68.14
26775;BME280;14362;51.902;7.626;2024-02-26T09:19:24;99823.06;;;6.33;68.82
26775;BME280;14362;51.902;7.626;2024-02-26T09:23:27;99820.38;;;6.37;67.94
26775;BME280;14362;51.902;7.626;2024-02-26T09:27:29;99821.38;;;6.30;68.98
26775;BME280;14362;51.902;7.626;2024-02-26T09:31:31;99833.53;;;6.33;69.05
26775;BME280;14362;51.902;7.626;2024-02-26T09:35:34;99833.13;;;6.54;66.97
26775;BME280;14362;51.902;7.626;2024-02-26T09:39:37;99835.69;;;6.56;67.03
26775;BME280;14362;51.902;7.626;2024-02-26T09:43:39;99834.06;;;6.50;67.99
26775;BME280;14362;51.902;7.626;2024-02-26T09:47:44;99819.97;;;6.59;67.49
26775;BME280;14362;51.902;7.626;2024-02-26T09:51:47;99846.25;;;6.51;67.66
26775;BME280;14362;51.902;7.626;2024-02-26T09:55:51;99841.78;;;6.58;68.09
26775;BME280;14362;51.902;7.626;2024-02-26T09:59:54;99859.81;;;6.72;67.77
26775;BME280;14362;51.902;7.626;2024-02-26T10:04:00;99858.13;;;6.69;67.28
26775;BME280;14362;51.902;7.626;2024-02-26T10:08:02;99857.88;;;6.80;66.71
26775;BME280;14362;51.902;7.626;2024-02-26T10:12:08;99867.34;;;6.87;67.96
26775;BME280;14362;51.902;7.626;2024-02-26T10:16:11;99869.97;;;6.87;66.53
26775;BME280;14362;51.902;7.626;2024-02-26T10:20:13;99875.34;;;6.80;67.45
26775;BME280;14362;51.902;7.626;2024-02-26T10:24:16;99874.66;;;6.70;67.22
26775;BME280;14362;51.902;7.626;2024-02-26T10:28:19;99874.44;;;6.82;67.52
26775;BME280;14362;51.902;7.626;2024-02-26T10:32:21;99878.13;;;6.70;67.65
26775;BME280;14362;51.902;7.626;2024-02-26T10:36:22;99887.66;;;6.73;67.17
26775;BME280;14362;51.902;7.626;2024-02-26T10:40:23;99901.81;;;6.63;67.48
26775;BME280;14362;51.902;7.626;2024-02-26T10:44:26;99889.69;;;6.60;67.42
26775;BME280;14362;51.902;7.626;2024-02-26T10:48:28;99910.44;;;6.68;67.53
26775;BME280;14362;51.902;7.626;2024-02-26T10:52:31;99911.31;;;6.68;67.96
26775;BME280;14362;51.902;7.626;2024-02-26T10:56:34;99916.69;;;6.60;67.88
26775;BME280;14362;51.902;7.626;2024-02-26T11:00:39;99923.47;;;6.71;69.38
26775;BME280;14362;51.902;7.626;2024-02-26T11:04:42;99926.88;;;6.76;68.30
26775;BME280;14362;51.902;7.626;2024-02-26T11:08:44;99939.41;;;6.57;68.94
26775;BME280;14362;51.902;7.626;2024-02-26T11:12:49;99929.22;;;6.41;68.30
26775;BME280;14362;51.902;7.626;2024-02-26T11:16:52;99916.81;;;6.54;67.53
26775;BME280;14362;51.902;7.626;2024-02-26T11:20:55;99921.09;;;6.58;66.75
26775;BME280;14362;51.902;7.626;2024-02-26T11:24:58;99912.72;;;6.39;67.87
26775;BME280;14362;51.902;7.626;2024-02-26T11:29:01;99925.53;;;6.53;68.95
26775;BME280;14362;51.902;7.626;2024-02-26T11:33:06;99921.38;;;6.41;68.83
26775;BME280;14362;51.902;7.626;2024-02-26T11:37:11;99930.69;;;6.58;68.46
26775;BME280;14362;51.902;7.626;2024-02-26T11:41:12;99931.94;;;6.37;69.36
26775;BME280;14362;51.902;7.626;2024-02-26T11:45:47;99930.09;;;6.43;68.17
26775;BME280;14362;51.902;7.626;2024-02-26T11:49:51;99936.25;;;6.38;69.38
26775;BME280;14362;51.902;7.626;2024-02-26T11:53:52;99932.81;;;6.37;69.49
26775;BME280;14362;51.902;7.626;2024-02-26T11:57:54;99947.53;;;6.41;69.52
26775;BME280;14362;51.902;7.626;2024-02-26T12:01:56;99942.50;;;6.31;70.64
26775;BME280;14362;51.902;7.626;2024-02-26T12:05:59;99952.03;;;6.33;70.36
26775;BME280;14362;51.902;7.626;2024-02-26T12:10:15;99955.44;;;6.38;70.17
26775;BME280;14362;51.902;7.626;2024-02-26T12:14:17;99964.06;;;6.43;70.66
26775;BME280;14362;51.902;7.626;2024-02-26T12:18:19;99967.53;;;6.44;70.61
26775;BME280;14362;51.902;7.626;2024-02-26T12:22:23;99964.72;;;6.56;70.17
26775;BME280;14362;51.902;7.626;2024-02-26T12:26:26;99972.72;;;6.49;70.96
26775;BME280;14362;51.902;7.626;2024-02-26T12:30:27;99981.91;;;6.70;69.36
26775;BME280;14362;51.902;7.626;2024-02-26T12:34:29;99989.00;;;6.63;70.50
26775;BME280;14362;51.902;7.626;2024-02-26T12:38:33;99989.22;;;6.52;70.61
26775;BME280;14362;51.902;7.626;2024-02-26T12:42:37;99994.41;;;6.54;70.73
26775;BME280;14362;51.902;7.626;2024-02-26T12:46:40;99986.59;;;6.52;70.35
26775;BME280;14362;51.902;7.626;2024-02-26T12:50:44;99994.34;;;6.57;70.75
26775;BME280;14362;51.902;7.626;2024-02-26T12:54:48;100000.16;;;6.74;69.58
26775;BME280;14362;51.902;7.626;2024-02-26T12:58:51;99996.75;;;6.69;69.34
26775;BME280;14362;51.902;7.626;2024-02-26T13:02:53;99990.69;;;6.67;69.29
26775;BME280;14362;51.902;7.626;2024-02-26T13:06:56;100008.03;;;6.71;68.56
26775;BME280;14362;51.902;7.626;2024-02-26T13:11:02;100004.28;;;6.86;68.97
26775;BME280;14362;51.902;7.626;2024-02-26T13:15:05;100014.75;;;6.86;68.52
26775;BME280;14362;51.902;7.626;2024-02-26T13:19:09;100012.19;;;6.83;68.49
26775;BME280;14362;51.902;7.626;2024-02-26T13:23:12;100004.38;;;6.82;69.03
26775;BME280;14362;51.902;7.626;2024-02-26T13:27:22;100001.78;;;6.80;69.03
26775;BME280;14362;51.902;7.626;2024-02-26T13:31:24;100009.56;;;6.85;69.49
26775;BME280;14362;51.902;7.626;2024-02-26T13:35:26;100020.09;;;6.80;69.20
26775;BME280;14362;51.902;7.626;2024-02-26T13:39:28;100031.34;;;6.85;69.00
26775;BME280;14362;51.902;7.626;2024-02-26T13:43:31;100026.19;;;6.82;69.38
26775;BME280;14362;51.902;7.626;2024-02-26T13:47:33;100034.03;;;6.81;67.85
26775;BME280;14362;51.902;7.626;2024-02-26T13:51:35;100037.63;;;6.75;68.94
26775;BME280;14362;51.902;7.626;2024-02-26T13:55:37;100032.34;;;6.78;68.73
26775;BME280;14362;51.902;7.626;2024-02-26T13:59:39;100040.97;;;6.85;68.60
26775;BME280;14362;51.902;7.626;2024-02-26T14:03:42;100056.69;;;6.82;68.92
26775;BME280;14362;51.902;7.626;2024-02-26T14:07:44;100057.38;;;6.93;68.54
26775;BME280;14362;51.902;7.626;2024-02-26T14:11:45;100067.91;;;6.90;68.92
26775;BME280;14362;51.902;7.626;2024-02-26T14:15:48;100049.53;;;6.93;67.85
26775;BME280;14362;51.902;7.626;2024-02-26T14:19:49;100058.34;;;6.89;68.54
26775;BME280;14362;51.902;7.626;2024-02-26T14:23:51;100061.03;;;6.83;69.13
26775;BME280;14362;51.902;7.626;2024-02-26T14:27:52;100065.94;;;7.01;68.79
26775;BME280;14362;51.902;7.626;2024-02-26T14:31:55;100078.34;;;6.91;68.83
26775;BME280;14362;51.902;7.626;2024-02-26T14:35:57;100076.72;;;6.84;68.91
26775;BME280;14362;51.902;7.626;2024-02-26T14:39:58;100074.03;;;6.89;69.29
26775;BME280;14362;51.902;7.626;2024-02-26T14:43:59;100078.25;;;6.98;68.79
26775;BME280;14362;51.902;7.626;2024-02-26T14:48:02;100079.28;;;6.87;69.35
26775;BME280;14362;51.902;7.626;2024-02-26T14:52:04;100104.56;;;6.90;70.13
26775;BME280;14362;51.902;7.626;2024-02-26T14:56:06;100116.84;;;6.85;70.04
26775;BME280;14362;51.902;7.626;2024-02-26T15:00:10;100114.31;;;6.79;70.42
26775;BME280;14362;51.902;7.626;2024-02-26T15:04:13;100112.72;;;6.70;70.33
26775;BME280;14362;51.902;7.626;2024-02-26T15:08:14;100118.88;;;6.66;72.12
26775;BME280;14362;51.902;7.626;2024-02-26T15:12:17;100128.47;;;6.65;71.27
26775;BME280;14362;51.902;7.626;2024-02-26T15:16:20;100129.34;;;6.66;72.14
26775;BME280;14362;51.902;7.626;2024-02-26T15:20:23;100122.53;;;6.55;73.03
26775;BME280;14362;51.902;7.626;2024-02-26T15:24:25;100127.66;;;6.62;73.27
26775;BME280;14362;51.902;7.626;2024-02-26T15:28:27;100148.72;;;6.54;73.58
26775;BME280;14362;51.902;7.626;2024-02-26T15:32:29;100140.81;;;6.57;73.42
26775;BME280;14362;51.902;7.626;2024-02-26T15:36:31;100147.88;;;6.50;73.68
26775;BME280;14362;51.902;7.626;2024-02-26T15:40:33;100154.03;;;6.48;74.55
26775;BME280;14362;51.902;7.626;2024-02-26T15:44:36;100156.72;;;6.41;75.08
26775;BME280;14362;51.902;7.626;2024-02-26T15:48:38;100161.91;;;6.46;74.46
26775;BME280;14362;51.902;7.626;2024-02-26T15:52:41;100163.53;;;6.55;74.02
26775;BME280;14362;51.902;7.626;2024-02-26T15:56:42;100162.63;;;6.54;74.90
26775;BME280;14362;51.902;7.626;2024-02-26T16:00:44;100163.63;;;6.47;74.28
26775;BME280;14362;51.902;7.626;2024-02-26T16:04:45;100171.44;;;6.49;74.52
26775;BME280;14362;51.902;7.626;2024-02-26T16:08:48;100187.06;;;6.55;74.21
26775;BME280;14362;51.902;7.626;2024-02-26T16:12:53;100198.44;;;6.52;73.66
26775;BME280;14362;51.902;7.626;2024-02-26T16:16:59;100204.47;;;6.56;73.59
26775;BME280;14362;51.902;7.626;2024-02-26T16:21:03;100214.91;;;6.56;74.37
26775;BME280;14362;51.902;7.626;2024-02-26T16:25:06;100222.88;;;6.50;73.59
26775;BME280;14362;51.902;7.626;2024-02-26T16:29:08;100226.38;;;6.46;75.03
26775;BME280;14362;51.902;7.626;2024-02-26T16:33:09;100240.38;;;6.45;74.48
26775;BME280;14362;51.902;7.626;2024-02-26T16:37:12;100243.91;;;6.39;75.11
26775;BME280;14362;51.902;7.626;2024-02-26T16:41:16;100258.72;;;6.40;75.40
26775;BME280;14362;51.902;7.626;2024-02-26T16:45:17;100262.28;;;6.34;76.08
26775;BME280;14362;51.902;7.626;2024-02-26T16:49:19;100277.13;;;6.32;75.67
26775;BME280;14362;51.902;7.626;2024-02-26T16:53:20;100278.88;;;6.29;76.13
26775;BME280;14362;51.902;7.626;2024-02-26T16:57:23;100280.53;;;6.37;75.85
26775;BME280;14362;51.902;7.626;2024-02-26T17:01:25;100292.00;;;6.27;76.63
26775;BME280;14362;51.902;7.626;2024-02-26T17:05:26;100304.19;;;6.28;76.98
26775;BME280;14362;51.902;7.626;2024-02-26T17:09:27;100302.44;;;6.27;77.32
26775;BME280;14362;51.902;7.626;2024-02-26T17:13:30;100307.72;;;6.21;77.47
26775;BME280;14362;51.902;7.626;2024-02-26T17:17:33;100313.88;;;6.17;78.26
26775;BME280;14362;51.902;7.626;2024-02-26T17:21:35;100320.88;;;6.16;78.92
26775;BME280;14362;51.902;7.626;2024-02-26T17:25:36;100333.88;;;6.21;79.21
26775;BME280;14362;51.902;7.626;2024-02-26T17:29:39;100343.56;;;6.13;79.56
26775;BME280;14362;51.902;7.626;2024-02-26T17:33:40;100347.03;;;6.12;79.16
26775;BME280;14362;51.902;7.626;2024-02-26T17:37:42;100355.66;;;6.20;79.00
26775;BME280;14362;51.902;7.626;2024-02-26T17:41:44;100372.31;;;6.09;79.53
26775;BME280;14362;51.902;7.626;2024-02-26T17:45:46;100370.59;;;6.10;79.23
26775;BME280;14362;51.902;7.626;2024-02-26T17:49:48;100375.81;;;6.10;79.48
26775;BME280;14362;51.902;7.626;2024-02-26T17:53:49;100389.78;;;6.07;79.65
26775;BME280;14362;51.902;7.626;2024-02-26T17:57:51;100388.91;;;6.05;79.23
26775;BME280;14362;51.902;7.626;2024-02-26T18:01:54;100401.06;;;6.11;78.54
26775;BME280;14362;51.902;7.626;2024-02-26T18:05:55;100413.25;;;6.14;78.95
26775;BME280;14362;51.902;7.626;2024-02-26T18:09:57;100413.22;;;6.12;78.78
26775;BME280;14362;51.902;7.626;2024-02-26T18:13:58;100426.28;;;6.15;78.14
26775;BME280;14362;51.902;7.626;2024-02-26T18:18:01;100415.84;;;6.15;78.27
26775;BME280;14362;51.902;7.626;2024-02-26T18:22:02;100435.06;;;6.06;78.18
26775;BME280;14362;51.902;7.626;2024-02-26T18:26:04;100439.31;;;6.18;78.07
26775;BME280;14362;51.902;7.626;2024-02-26T18:30:07;100442.00;;;6.10;77.72
26775;BME280;14362;51.902;7.626;2024-02-26T18:34:10;100448.00;;;6.23;77.41
26775;BME280;14362;51.902;7.626;2024-02-26T18:38:12;100474.13;;;6.23;77.50
26775;BME280;14362;51.902;7.626;2024-02-26T18:42:14;100481.22;;;6.09;78.39
26775;BME280;14362;51.902;7.626;2024-02-26T18:46:18;100484.69;;;6.09;78.26
26775;BME280;14362;51.902;7.626;2024-02-26T18:50:21;100496.84;;;6.17;77.85
26775;BME280;14362;51.902;7.626;2024-02-26T18:54:22;100520.41;;;6.10;77.98
26775;BME280;14362;51.902;7.626;2024-02-26T18:58:24;100524.78;;;6.07;78.42
26775;BME280;14362;51.902;7.626;2024-02-26T19:02:25;100533.50;;;6.07;78.63
26775;BME280;14362;51.902;7.626;2024-02-26T19:06:30;100535.25;;;6.08;78.53
26775;BME280;14362;51.902;7.626;2024-02-26T19:10:32;100537.00;;;6.05;78.80
26775;BME280;14362;51.902;7.626;2024-02-26T19:14:34;100538.78;;;5.95;79.25
26775;BME280;14362;51.902;7.626;2024-02-26T19:18:36;100547.44;;;6.11;79.30
26775;BME280;14362;51.902;7.626;2024-02-26T19:22:39;100559.66;;;6.03;79.71
26775;BME280;14362;51.902;7.626;2024-02-26T19:26:42;100556.19;;;5.98;79.75
26775;BME280;14362;51.902;7.626;2024-02-26T19:30:44;100556.19;;;6.02;79.21
26775;BME280;14362;51.902;7.626;2024-02-26T19:34:45;100564.03;;;5.99;79.49
26775;BME280;14362;51.902;7.626;2024-02-26T19:38:48;100584.94;;;5.94;79.89
26775;BME280;14362;51.902;7.626;2024-02-26T19:42:49;100579.78;;;5.85;79.90
26775;BME280;14362;51.902;7.626;2024-02-26T19:46:51;100582.38;;;5.88;79.85
26775;BME280;14362;51.902;7.626;2024-02-26T19:50:52;100583.31;;;5.75;80.77
26775;BME280;14362;51.902;7.626;2024-02-26T19:54:56;100598.06;;;5.84;80.42
26775;BME280;14362;51.902;7.626;2024-02-26T19:58:58;100600.66;;;5.87;80.29
26775;BME280;14362;51.902;7.626;2024-02-26T20:02:59;100624.16;;;5.93;79.59
26775;BME280;14362;51.902;7.626;2024-02-26T20:07:01;100624.22;;;5.76;80.03
26775;BME280;14362;51.902;7.626;2024-02-26T20:11:04;100638.13;;;5.84;80.35
26775;BME280;14362;51.902;7.626;2024-02-26T20:15:06;100642.47;;;5.81;80.64
26775;BME280;14362;51.902;7.626;2024-02-26T20:19:08;100652.97;;;5.70;80.74
26775;BME280;14362;51.902;7.626;2024-02-26T20:23:11;100660.81;;;5.70;80.73
26775;BME280;14362;51.902;7.626;2024-02-26T20:27:14;100679.97;;;5.64;80.93
26775;BME280;14362;51.902;7.626;2024-02-26T20:31:15;100669.56;;;5.59;80.96
26775;BME280;14362;51.902;7.626;2024-02-26T20:35:17;100666.94;;;5.56;81.00
26775;BME280;14362;51.902;7.626;2024-02-26T20:39:18;100682.59;;;5.61;80.62
26775;BME280;14362;51.902;7.626;2024-02-26T20:43:21;100681.72;;;5.59;80.80
26775;BME280;14362;51.902;7.626;2024-02-26T20:47:22;100695.66;;;5.53;81.07
26775;BME280;14362;51.902;7.626;2024-02-26T20:51:24;100702.63;;;5.51;80.69
26775;BME280;14362;51.902;7.626;2024-02-26T20:55:25;100707.00;;;5.49;80.95
26775;BME280;14362;51.902;7.626;2024-02-26T20:59:29;100703.53;;;5.42;80.99
26775;BME280;14362;51.902;7.626;2024-02-26T21:03:32;100705.28;;;5.45;80.89
26775;BME280;14362;51.902;7.626;2024-02-26T21:07:33;100723.53;;;5.47;80.92
26775;BME280;14362;51.902;7.626;2024-02-26T21:11:35;100727.03;;;5.36;80.92
26775;BME280;14362;51.902;7.626;2024-02-26T21:15:37;100734.84;;;5.39;80.87
26775;BME280;14362;51.902;7.626;2024-02-26T21:19:40;100738.34;;;5.43;80.65
26775;BME280;14362;51.902;7.626;2024-02-26T21:23:42;100740.09;;;5.35;80.95
26775;BME280;14362;51.902;7.626;2024-02-26T21:27:43;100755.72;;;5.24;81.29
26775;BME280;14362;51.902;7.626;2024-02-26T21:31:46;100774.88;;;5.24;81.17
26775;BME280;14362;51.902;7.626;2024-02-26T21:35:48;100779.25;;;5.27;80.85